Time;durP1;ratioP1;P1;durP2;ratioP2;P2;SDS_P1;SDS_P2;PMS_P1;PMS_P2;Temp;Humidity;BMP_temperature;BMP_pressure;BME280_temperature;BME280_humidity;BME280_pressure;Samples;Min_cycle;Max_cycle;Signal;HPM_P1;HPM_P2
2021/12/31 00:00:52;;;;;;;9.63;3.30;;;;;;;13.81;94.79;101239.69;4971459;28;20636;-62
2021/12/31 00:03:20;;;;;;;6.83;3.03;;;;;;;13.84;95.29;101242.91;4969539;28;20226;-61
2021/12/31 00:05:48;;;;;;;6.67;2.50;;;;;;;13.82;95.01;101239.56;4969947;28;20734;-62
2021/12/31 00:08:16;;;;;;;10.03;2.40;;;;;;;13.81;95.01;101242.34;4970263;28;20210;-62
2021/12/31 00:10:43;;;;;;;7.13;2.50;;;;;;;13.75;95.21;101240.31;4970964;28;20218;-61
2021/12/31 00:13:13;;;;;;;8.67;2.60;;;;;;;13.72;95.10;101243.28;4970652;28;20688;-61
2021/12/31 00:15:40;;;;;;;5.57;2.60;;;;;;;13.75;95.58;101242.97;4968741;28;20229;-61
2021/12/31 00:18:09;;;;;;;4.90;2.47;;;;;;;13.65;96.07;101242.19;4969863;28;20603;-61
2021/12/31 00:20:40;;;;;;;4.73;1.90;;;;;;;13.69;95.89;101238.25;4971883;28;20219;-61
2021/12/31 00:23:09;;;;;;;9.23;2.60;;;;;;;13.66;96.21;101238.53;4973094;28;20294;-60
2021/12/31 00:25:40;;;;;;;6.30;2.23;;;;;;;13.73;96.00;101245.78;4968613;28;20230;-61
2021/12/31 00:28:08;;;;;;;5.70;2.23;;;;;;;13.65;96.25;101242.19;4969485;28;20340;-61
2021/12/31 00:30:38;;;;;;;7.03;2.43;;;;;;;13.69;95.85;101252.41;4968871;28;20213;-61
2021/12/31 00:33:08;;;;;;;6.37;2.50;;;;;;;13.67;95.65;101234.88;4967180;28;20229;-61
2021/12/31 00:35:38;;;;;;;4.50;1.93;;;;;;;13.70;95.90;101243.44;4970687;28;20268;-61
2021/12/31 00:38:06;;;;;;;8.17;2.20;;;;;;;13.72;95.56;101244.09;4969543;28;20237;-61
2021/12/31 00:40:34;;;;;;;6.40;2.37;;;;;;;13.67;95.92;101246.38;4969351;28;20621;-61
2021/12/31 00:43:01;;;;;;;12.10;2.60;;;;;;;13.59;95.64;101238.31;4968220;28;20308;-61
2021/12/31 00:45:30;;;;;;;5.63;2.60;;;;;;;13.59;95.90;101235.63;4967960;28;20726;-61
2021/12/31 00:48:00;;;;;;;6.70;2.60;;;;;;;13.58;95.67;101236.63;4967925;28;20216;-62
2021/12/31 00:50:28;;;;;;;6.93;2.40;;;;;;;13.49;95.72;101238.34;4968569;28;20229;-62
2021/12/31 00:52:55;;;;;;;8.07;2.47;;;;;;;13.56;95.59;101230.59;4966699;28;20309;-62
2021/12/31 00:55:23;;;;;;;4.80;2.53;;;;;;;13.53;95.64;101230.91;4968546;28;20637;-62
2021/12/31 00:57:51;;;;;;;10.80;2.93;;;;;;;13.45;95.69;101231.66;4969163;28;20317;-62
2021/12/31 01:00:19;;;;;;;6.17;2.73;;;;;;;13.41;95.74;101224.09;4969256;28;20697;-62
2021/12/31 01:02:47;;;;;;;7.50;2.70;;;;;;;13.43;95.82;101225.63;4969664;28;20315;-61
2021/12/31 01:05:17;;;;;;;8.00;3.40;;;;;;;13.42;95.77;101225.78;4968539;28;20215;-62
2021/12/31 01:07:45;;;;;;;6.97;3.00;;;;;;;13.40;95.78;101220.59;4969589;28;20230;-62
2021/12/31 01:10:16;;;;;;;6.93;3.27;;;;;;;13.41;95.59;101224.94;4967853;28;20743;-62
2021/12/31 01:12:44;;;;;;;6.60;2.90;;;;;;;13.37;95.47;101217.41;4968215;28;20305;-62
2021/12/31 01:15:19;;;;;;;9.77;2.93;;;;;;;13.32;95.37;101228.47;4969734;28;20213;-62
2021/12/31 01:18:13;;;;;;;11.77;3.70;;;;;;;13.34;95.67;101223.00;4966422;28;20312;-61
2021/12/31 01:20:40;;;;;;;6.70;3.00;;;;;;;13.30;95.13;101218.94;4958523;28;20492;-62
2021/12/31 01:23:09;;;;;;;5.47;3.37;;;;;;;13.31;94.89;101221.47;4960371;28;20313;-62
2021/12/31 01:25:37;;;;;;;7.63;3.27;;;;;;;13.27;94.87;101225.44;4969435;28;20695;-62
2021/12/31 01:28:05;;;;;;;12.40;3.27;;;;;;;13.24;95.44;101227.53;4970322;28;20253;-63
2021/12/31 01:30:33;;;;;;;23.03;14.17;;;;;;;13.23;95.20;101216.03;4968995;28;20590;-62
2021/12/31 01:33:00;;;;;;;24.00;13.63;;;;;;;13.25;95.99;101226.56;4968801;28;20228;-60
2021/12/31 01:35:28;;;;;;;9.60;4.40;;;;;;;13.35;94.77;101235.34;4967343;28;20218;-60
2021/12/31 01:37:57;;;;;;;8.90;3.07;;;;;;;13.38;94.77;101235.88;4968246;28;20244;-60
2021/12/31 01:40:25;;;;;;;5.73;3.00;;;;;;;13.35;94.00;101236.19;4969498;28;20425;-63
2021/12/31 01:42:52;;;;;;;7.53;3.40;;;;;;;13.28;94.54;101245.72;4968235;28;20225;-59
2021/12/31 01:45:21;;;;;;;7.87;3.20;;;;;;;13.35;94.62;101238.84;4971074;28;20269;-60
2021/12/31 01:48:06;;;;;;;6.73;3.20;;;;;;;13.44;94.37;101250.44;4972056;28;20285;-63
2021/12/31 01:50:35;;;;;;;7.33;3.30;;;;;;;13.39;94.22;101242.03;4969352;28;20317;-60
2021/12/31 01:53:05;;;;;;;12.47;4.00;;;;;;;13.46;94.26;101243.13;4972232;28;20305;-60
2021/12/31 01:55:34;;;;;;;9.10;3.87;;;;;;;13.51;93.74;101248.88;4973438;28;20848;-61
2021/12/31 01:58:03;;;;;;;7.87;3.40;;;;;;;13.49;94.18;101253.50;4972767;28;20722;-61
2021/12/31 02:00:31;;;;;;;9.40;3.40;;;;;;;13.52;94.01;101259.38;4972641;28;20305;-61
2021/12/31 02:03:01;;;;;;;10.27;3.43;;;;;;;13.57;93.87;101256.25;4970773;28;20249;-61
2021/12/31 02:05:29;;;;;;;12.03;4.30;;;;;;;13.55;93.66;101253.72;4971749;28;20234;-61
2021/12/31 02:07:58;;;;;;;10.23;3.97;;;;;;;13.56;93.94;101254.56;4973045;28;20209;-61
2021/12/31 02:10:27;;;;;;;8.93;3.50;;;;;;;13.49;93.31;101254.34;4971497;28;20657;-61
2021/12/31 02:12:56;;;;;;;12.70;4.13;;;;;;;13.47;94.22;101258.97;4969510;28;20217;-61
2021/12/31 02:15:25;;;;;;;6.00;3.70;;;;;;;13.55;94.00;101253.72;4969927;28;20210;-61
2021/12/31 02:17:53;;;;;;;6.57;3.40;;;;;;;13.56;93.31;101254.56;4972788;28;20214;-60
2021/12/31 02:20:22;;;;;;;7.70;3.27;;;;;;;13.61;93.54;101249.66;4972604;28;20225;-61
2021/12/31 02:23:04;;;;;;;9.70;4.00;;;;;;;13.57;93.20;101259.75;4961542;28;20245;-61
2021/12/31 02:25:33;;;;;;;8.93;3.67;;;;;;;13.65;93.00;101256.34;4966430;28;20334;-60
2021/12/31 02:28:00;;;;;;;7.23;3.27;;;;;;;13.63;92.95;101254.84;4971639;28;20238;-60
2021/12/31 02:30:29;;;;;;;6.97;3.73;;;;;;;13.52;93.30;101254.06;4973378;28;20302;-60
2021/12/31 02:32:57;;;;;;;7.80;3.50;;;;;;;13.54;93.79;101261.91;4972317;28;20216;-60
2021/12/31 02:35:27;;;;;;;7.57;3.60;;;;;;;13.56;94.35;101262.56;4972386;28;20316;-60
2021/12/31 02:37:54;;;;;;;9.30;3.80;;;;;;;13.57;93.12;101262.44;4969998;28;20296;-60
2021/12/31 02:40:24;;;;;;;8.23;3.67;;;;;;;13.64;93.32;101265.34;4970903;28;20233;-61
2021/12/31 02:42:52;;;;;;;8.17;3.27;;;;;;;13.66;92.73;101275.84;4970929;28;20308;-60
2021/12/31 02:45:21;;;;;;;6.17;2.83;;;;;;;13.67;93.10;101278.38;4973448;28;20309;-61
2021/12/31 02:47:51;;;;;;;12.17;3.50;;;;;;;13.68;92.90;101279.22;4972507;28;20253;-61
2021/12/31 02:50:20;;;;;;;5.43;3.13;;;;;;;13.68;93.14;101280.06;4970381;28;20214;-61
2021/12/31 02:52:49;;;;;;;5.57;2.97;;;;;;;13.69;92.93;101280.88;4970028;28;20226;-61
2021/12/31 02:55:18;;;;;;;6.10;2.83;;;;;;;13.72;92.84;101283.28;4969745;28;20242;-60
2021/12/31 02:57:47;;;;;;;5.80;2.87;;;;;;;13.68;92.82;101279.22;4956562;28;20298;-61
2021/12/31 03:00:15;;;;;;;6.97;3.20;;;;;;;13.68;92.98;101280.06;4961075;28;20240;-61
2021/12/31 03:02:44;;;;;;;6.23;3.23;;;;;;;13.61;93.35;101262.97;4966035;28;20659;-60
2021/12/31 03:05:13;;;;;;;7.53;3.53;;;;;;;13.60;93.43;101271.97;4969086;28;20224;-61
2021/12/31 03:07:46;;;;;;;6.87;3.30;;;;;;;13.63;93.29;101282.34;4972402;28;20218;-61
2021/12/31 03:10:16;;;;;;;6.83;3.70;;;;;;;13.53;93.60;101273.53;4971476;28;20216;-61
2021/12/31 03:12:44;;;;;;;7.83;3.30;;;;;;;13.48;94.29;101273.13;4969799;28;20294;-60
2021/12/31 03:15:13;;;;;;;5.37;2.97;;;;;;;13.37;94.42;101274.16;4970054;28;20221;-60
2021/12/31 03:17:42;;;;;;;6.07;3.07;;;;;;;13.24;95.84;101270.16;4970897;28;20247;-61
2021/12/31 03:20:13;;;;;;;6.67;2.93;;;;;;;13.38;94.79;101277.66;4971638;28;20226;-61
2021/12/31 03:22:43;;;;;;;7.10;3.00;;;;;;;13.33;94.99;101270.13;4964815;28;20217;-60
2021/12/31 03:25:12;;;;;;;6.93;3.30;;;;;;;13.48;94.45;101270.47;4970026;28;20235;-61
2021/12/31 03:27:41;;;;;;;7.00;3.20;;;;;;;13.51;94.08;101256.84;4969827;28;20317;-60
2021/12/31 03:30:11;;;;;;;8.30;4.27;;;;;;;13.34;95.16;101254.97;4969577;28;20286;-61
2021/12/31 03:32:39;;;;;;;6.37;3.40;;;;;;;13.07;96.89;101258.41;4968205;28;20657;-61
2021/12/31 03:35:07;;;;;;;7.20;3.20;;;;;;;13.06;96.83;101252.25;4971338;28;20630;-60
2021/12/31 03:37:35;;;;;;;6.43;2.87;;;;;;;13.06;97.48;101257.56;4971437;28;20741;-61
2021/12/31 03:40:03;;;;;;;6.63;2.87;;;;;;;13.12;96.99;101262.31;4968969;28;20592;-61
2021/12/31 03:42:31;;;;;;;8.70;3.73;;;;;;;13.06;97.59;101257.56;4968956;28;20294;-61
2021/12/31 03:45:00;;;;;;;8.27;3.60;;;;;;;13.10;97.61;101258.97;4968931;28;20213;-61
2021/12/31 03:47:28;;;;;;;9.13;2.93;;;;;;;13.14;97.75;101265.69;4970529;28;20322;-61
2021/12/31 03:49:56;;;;;;;6.37;3.00;;;;;;;13.16;97.63;101261.06;4969992;28;20304;-61
2021/12/31 03:52:23;;;;;;;8.33;3.73;;;;;;;13.16;97.53;101258.41;4969655;28;20647;-61
2021/12/31 03:54:51;;;;;;;8.87;4.10;;;;;;;12.99;98.67;101256.47;4968641;28;20667;-61
2021/12/31 03:57:19;;;;;;;7.60;3.23;;;;;;;12.88;100.00;101253.97;4968307;28;20308;-61
2021/12/31 03:59:47;;;;;;;5.97;2.87;;;;;;;12.86;100.00;101247.94;4970733;28;20524;-61
2021/12/31 04:02:16;;;;;;;7.20;2.97;;;;;;;12.79;100.00;101249.50;4968940;28;20662;-61
2021/12/31 04:04:44;;;;;;;7.40;2.80;;;;;;;12.85;100.00;101248.09;4969762;28;20299;-61
2021/12/31 04:07:12;;;;;;;6.63;3.07;;;;;;;12.89;100.00;101246.81;4968782;28;20216;-61
2021/12/31 04:09:39;;;;;;;7.40;2.87;;;;;;;12.91;100.00;101247.53;4970023;28;20236;-62
2021/12/31 04:12:08;;;;;;;5.70;3.13;;;;;;;12.75;100.00;101246.28;4969616;28;20216;-62
2021/12/31 04:14:36;;;;;;;7.93;2.60;;;;;;;12.67;100.00;101245.31;4968448;28;20640;-62
2021/12/31 04:17:04;;;;;;;14.37;3.27;;;;;;;12.59;100.00;101227.41;4968669;28;20624;-62
2021/12/31 04:19:33;;;;;;;8.23;2.93;;;;;;;12.60;100.00;101223.78;4969366;28;20235;-62
2021/12/31 04:22:01;;;;;;;5.00;2.80;;;;;;;12.63;100.00;101222.66;4968838;28;20255;-62
2021/12/31 04:24:41;;;;;;;8.00;2.80;;;;;;;12.53;100.00;101220.00;4971271;28;20226;-61
2021/12/31 04:27:08;;;;;;;7.30;2.73;;;;;;;12.48;100.00;101224.09;4969148;28;20368;-61
2021/12/31 04:29:36;;;;;;;7.60;2.87;;;;;;;12.53;100.00;101217.34;4970656;28;20224;-61
2021/12/31 04:32:05;;;;;;;6.83;2.67;;;;;;;12.59;100.00;101215.94;4971354;28;20302;-61
2021/12/31 04:34:34;;;;;;;7.63;2.60;;;;;;;12.58;100.00;101211.59;4968070;28;23515;-61
2021/12/31 04:37:02;;;;;;;6.67;2.60;;;;;;;12.61;100.00;101203.34;4970837;28;20217;-61
2021/12/31 04:39:29;;;;;;;6.33;2.67;;;;;;;12.39;100.00;101209.81;4970388;28;20297;-61
2021/12/31 04:41:57;;;;;;;7.80;3.00;;;;;;;12.42;100.00;101199.72;4968821;28;20226;-61
2021/12/31 04:44:25;;;;;;;13.03;2.87;;;;;;;12.40;100.00;101191.03;4968520;28;20242;-61
2021/12/31 04:46:53;;;;;;;5.77;2.73;;;;;;;12.33;100.00;101205.03;4969654;28;20243;-60
2021/12/31 04:49:22;;;;;;;6.23;2.80;;;;;;;12.41;100.00;101195.38;4971502;28;20291;-61
2021/12/31 04:51:51;;;;;;;5.57;2.87;;;;;;;12.37;100.00;101201.13;4969486;28;20302;-60
2021/12/31 04:54:18;;;;;;;5.73;2.47;;;;;;;12.39;100.00;101202.69;4969409;28;20649;-59
2021/12/31 04:56:51;;;;;;;5.47;2.83;;;;;;;12.38;100.00;101205.47;4967494;28;20318;-62
2021/12/31 04:59:19;;;;;;;8.30;3.37;;;;;;;12.30;100.00;101190.25;4968221;28;20238;-60
2021/12/31 05:01:48;;;;;;;6.00;3.13;;;;;;;12.27;100.00;101202.97;4971278;28;20246;-60
2021/12/31 05:04:17;;;;;;;8.10;2.73;;;;;;;12.13;100.00;101193.63;4969876;28;20306;-58
2021/12/31 05:06:47;;;;;;;5.90;3.07;;;;;;;12.25;100.00;101187.16;4968654;28;20207;-61
2021/12/31 05:09:17;;;;;;;6.83;3.27;;;;;;;12.14;100.00;101187.28;4969834;28;20217;-60
2021/12/31 05:11:45;;;;;;;5.97;2.63;;;;;;;12.25;100.00;101178.31;4972994;28;20222;-61
2021/12/31 05:14:13;;;;;;;6.40;3.27;;;;;;;12.26;100.00;101175.53;4969196;28;20237;-61
2021/12/31 05:16:41;;;;;;;6.97;3.10;;;;;;;12.18;100.00;101186.03;4969739;28;20241;-61
2021/12/31 05:19:08;;;;;;;8.40;2.70;;;;;;;12.05;100.00;101185.47;4960701;28;20310;-60
2021/12/31 05:21:36;;;;;;;7.73;3.30;;;;;;;12.01;100.00;101178.78;4964085;28;20325;-61
2021/12/31 05:24:04;;;;;;;6.17;3.03;;;;;;;12.05;100.00;101174.84;4972826;28;20313;-60
2021/12/31 05:26:33;;;;;;;7.30;2.50;;;;;;;12.02;100.00;101177.78;4971020;28;20233;-61
2021/12/31 05:29:02;;;;;;;5.33;2.33;;;;;;;11.97;100.00;101174.69;4958812;28;20299;-60
2021/12/31 05:31:30;;;;;;;4.67;2.43;;;;;;;11.90;100.00;101176.25;4969473;28;20207;-60
2021/12/31 05:33:57;;;;;;;6.13;2.77;;;;;;;11.92;100.00;101176.94;4970596;28;20219;-61
2021/12/31 05:36:27;;;;;;;4.57;2.40;;;;;;;11.77;100.00;101181.00;4972431;28;20275;-59
2021/12/31 05:38:54;;;;;;;6.40;3.07;;;;;;;11.86;100.00;101180.19;4974044;28;20225;-61
2021/12/31 05:41:22;;;;;;;5.10;2.33;;;;;;;11.75;100.00;101182.97;4972075;28;20237;-61
2021/12/31 05:43:51;;;;;;;6.87;2.33;;;;;;;11.71;100.00;101187.66;4972139;28;20716;-61
2021/12/31 05:46:19;;;;;;;5.50;2.80;;;;;;;11.82;100.00;101184.06;4970819;28;20573;-61
2021/12/31 05:48:47;;;;;;;9.20;2.97;;;;;;;11.83;100.00;101188.41;4972143;28;20607;-61
2021/12/31 05:51:14;;;;;;;5.83;2.10;;;;;;;11.70;100.00;101192.13;4972546;28;20206;-60
2021/12/31 05:53:42;;;;;;;6.07;2.40;;;;;;;11.82;100.00;101194.69;4969826;28;20317;-61
2021/12/31 05:56:10;;;;;;;9.70;2.40;;;;;;;11.75;100.00;101193.59;4970456;28;20742;-61
2021/12/31 05:58:38;;;;;;;5.40;2.47;;;;;;;11.52;100.00;101199.09;4970592;28;20242;-60
2021/12/31 06:01:07;;;;;;;4.07;2.30;;;;;;;11.55;100.00;101204.13;4969083;28;20242;-61
2021/12/31 06:03:35;;;;;;;6.73;2.80;;;;;;;11.58;100.00;101205.69;4973506;28;20210;-61
2021/12/31 06:06:03;;;;;;;7.23;2.57;;;;;;;11.49;100.00;101203.84;4970184;28;20284;-61
2021/12/31 06:08:31;;;;;;;7.70;2.63;;;;;;;11.47;100.00;101190.69;4971441;28;20809;-61
2021/12/31 06:10:59;;;;;;;7.10;2.60;;;;;;;11.25;100.00;101198.91;4971639;28;20250;-61
2021/12/31 06:13:27;;;;;;;6.57;2.63;;;;;;;11.49;100.00;101198.53;4969383;28;20215;-61
2021/12/31 06:15:58;;;;;;;6.67;2.60;;;;;;;11.31;100.00;101204.50;4972474;28;20309;-61
2021/12/31 06:18:28;;;;;;;6.37;3.10;;;;;;;11.28;100.00;101201.25;4970319;28;20225;-61
2021/12/31 06:20:55;;;;;;;9.53;2.60;;;;;;;11.40;100.00;101199.34;4970997;28;20718;-61
2021/12/31 06:23:23;;;;;;;4.77;2.97;;;;;;;11.35;100.00;101202.41;4967130;28;20816;-61
2021/12/31 06:25:51;;;;;;;5.93;2.90;;;;;;;11.45;100.00;101208.59;4973128;28;20657;-61
2021/12/31 06:28:18;;;;;;;3.93;2.43;;;;;;;11.40;100.00;101204.66;4971569;28;20250;-61
2021/12/31 06:30:46;;;;;;;6.50;2.73;;;;;;;11.27;100.00;101213.69;4981786;28;20216;-61
2021/12/31 06:33:14;;;;;;;5.50;2.50;;;;;;;11.27;100.00;101199.59;4977303;28;20214;-61
2021/12/31 06:35:43;;;;;;;6.10;2.83;;;;;;;11.30;100.00;101209.94;4972976;28;20216;-61
2021/12/31 06:38:11;;;;;;;7.10;2.47;;;;;;;11.23;100.00;101203.50;4957487;28;20652;-61
2021/12/31 06:40:39;;;;;;;4.53;2.70;;;;;;;11.35;100.00;101205.06;4972930;28;20276;-61
2021/12/31 06:43:07;;;;;;;5.80;2.90;;;;;;;11.24;100.00;101195.41;4971784;28;20656;-61
2021/12/31 06:45:35;;;;;;;7.07;2.77;;;;;;;11.20;100.00;101196.63;4971269;28;20216;-61
2021/12/31 06:48:04;;;;;;;7.07;2.90;;;;;;;11.29;100.00;101193.16;4970731;28;20693;-61
2021/12/31 06:50:32;;;;;;;8.13;2.80;;;;;;;11.11;100.00;101194.78;4971327;28;20245;-61
2021/12/31 06:53:02;;;;;;;8.63;2.80;;;;;;;11.11;100.00;101193.94;4970983;28;20361;-59
2021/12/31 06:55:32;;;;;;;4.50;2.90;;;;;;;11.13;100.00;101203.47;4971628;28;20224;-61
2021/12/31 06:58:00;;;;;;;7.30;3.23;;;;;;;11.17;100.00;101207.50;4970429;28;20622;-61
2021/12/31 07:00:27;;;;;;;5.83;2.97;;;;;;;11.19;100.00;101204.72;4970910;28;20217;-61
2021/12/31 07:03:05;;;;;;;9.23;3.07;;;;;;;11.28;100.00;101202.09;4954132;28;20691;-61
2021/12/31 07:05:33;;;;;;;6.97;2.80;;;;;;;11.22;100.00;101205.31;4971364;28;20213;-61
2021/12/31 07:08:02;;;;;;;7.40;2.77;;;;;;;11.13;100.00;101202.63;4970428;28;20228;-61
2021/12/31 07:10:33;;;;;;;5.07;2.53;;;;;;;11.11;100.00;101189.47;4971716;28;20202;-61
2021/12/31 07:13:04;;;;;;;8.93;3.13;;;;;;;11.05;100.00;101189.19;4970474;28;20225;-61
2021/12/31 07:15:32;;;;;;;4.40;2.53;;;;;;;10.99;100.00;101193.22;4971105;28;20300;-61
2021/12/31 07:18:00;;;;;;;5.33;2.97;;;;;;;10.91;100.00;101206.28;4972152;28;20244;-61
2021/12/31 07:20:28;;;;;;;5.93;2.83;;;;;;;11.18;100.00;101203.03;4968759;28;20249;-61
2021/12/31 07:22:55;;;;;;;7.70;3.07;;;;;;;11.17;100.00;101212.00;4969226;28;20713;-61
2021/12/31 07:25:24;;;;;;;7.00;3.03;;;;;;;11.23;100.00;101206.16;4970371;28;20717;-62
2021/12/31 07:27:55;;;;;;;10.43;2.63;;;;;;;11.11;100.00;101200.09;4971310;28;20327;-60
2021/12/31 07:30:23;;;;;;;9.17;3.10;;;;;;;11.10;100.00;101200.22;4971572;28;20212;-61
2021/12/31 07:32:50;;;;;;;7.40;3.00;;;;;;;11.06;100.00;101201.47;4970240;28;20678;-61
2021/12/31 07:35:18;;;;;;;11.57;3.63;;;;;;;11.02;100.00;101211.50;4970959;28;20209;-61
2021/12/31 07:37:46;;;;;;;7.70;3.10;;;;;;;10.92;100.00;101195.53;4970563;28;20224;-59
2021/12/31 07:40:23;;;;;;;7.20;3.50;;;;;;;10.87;100.00;101196.91;4971354;28;20301;-61
2021/12/31 07:42:53;;;;;;;7.17;3.17;;;;;;;10.84;100.00;101203.31;4970809;28;20338;-61
2021/12/31 07:45:21;;;;;;;5.87;3.33;;;;;;;10.74;100.00;101202.44;4969532;28;20217;-61
2021/12/31 07:47:49;;;;;;;11.40;3.90;;;;;;;10.83;100.00;101201.63;4968670;28;20237;-61
2021/12/31 07:50:17;;;;;;;7.43;3.40;;;;;;;10.77;100.00;101198.69;4969144;28;20256;-62
2021/12/31 07:52:44;;;;;;;6.50;3.17;;;;;;;10.83;100.00;101200.78;4969451;28;20213;-62
2021/12/31 07:55:12;;;;;;;8.87;3.10;;;;;;;10.79;100.00;101194.09;4971017;28;20597;-61
2021/12/31 07:57:40;;;;;;;6.43;3.00;;;;;;;10.69;100.00;101187.88;4970418;28;20221;-61
2021/12/31 08:00:10;;;;;;;9.17;3.10;;;;;;;10.48;100.00;101183.44;4969702;28;20221;-61
2021/12/31 08:02:38;;;;;;;7.07;3.97;;;;;;;10.45;100.00;101196.97;4969074;28;20605;-62
2021/12/31 08:05:07;;;;;;;6.47;3.60;;;;;;;10.54;100.00;101195.34;4969153;28;20274;-62
2021/12/31 08:07:34;;;;;;;8.00;3.27;;;;;;;10.54;100.00;101195.34;4972037;28;20726;-61
2021/12/31 08:10:03;;;;;;;7.10;3.50;;;;;;;10.52;100.00;101189.31;4970125;28;20256;-61
2021/12/31 08:12:50;;;;;;;7.97;3.90;;;;;;;10.52;100.00;101205.25;4968946;28;20219;-61
2021/12/31 08:15:19;;;;;;;12.67;4.20;;;;;;;10.63;100.00;101193.72;4969240;28;20311;-62
2021/12/31 08:17:47;;;;;;;10.50;4.10;;;;;;;10.67;100.00;101206.59;4968937;28;20267;-60
2021/12/31 08:20:15;;;;;;;7.53;3.50;;;;;;;10.65;100.00;101210.31;4971240;28;20259;-60
2021/12/31 08:22:43;;;;;;;8.53;3.67;;;;;;;10.79;100.00;101210.84;4962311;28;20238;-63
2021/12/31 08:25:10;;;;;;;8.17;4.37;;;;;;;10.74;100.00;101214.84;4964325;28;20616;-62
2021/12/31 08:27:40;;;;;;;9.90;4.40;;;;;;;10.68;100.00;101221.53;4965768;28;20284;-59
2021/12/31 08:30:09;;;;;;;8.13;3.80;;;;;;;10.78;100.00;101214.47;4970725;28;20228;-63
2021/12/31 08:32:38;;;;;;;8.27;4.30;;;;;;;10.86;100.00;101214.66;4969515;28;20245;-60
2021/12/31 08:35:07;;;;;;;6.83;3.47;;;;;;;10.86;100.00;101211.16;4970487;28;20666;-61
2021/12/31 08:37:35;;;;;;;9.00;4.10;;;;;;;10.84;100.00;101208.63;4968181;28;20298;-60
2021/12/31 08:40:04;;;;;;;7.30;4.17;;;;;;;10.78;100.00;101209.16;4970563;28;20264;-63
2021/12/31 08:42:32;;;;;;;7.70;3.83;;;;;;;10.87;100.00;101203.06;4968946;28;20230;-61
2021/12/31 08:44:59;;;;;;;8.73;3.70;;;;;;;10.81;100.00;101205.41;4971765;28;20216;-61
2021/12/31 08:47:28;;;;;;;6.87;4.07;;;;;;;10.89;100.00;101208.25;4969971;28;20596;-60
2021/12/31 08:49:57;;;;;;;9.70;3.90;;;;;;;10.92;100.00;101214.09;4969049;28;20317;-60
2021/12/31 08:52:25;;;;;;;7.80;3.30;;;;;;;10.96;100.00;101205.91;4968370;28;20666;-64
2021/12/31 08:54:53;;;;;;;7.83;4.17;;;;;;;10.98;100.00;101214.56;4974188;28;20216;-62
2021/12/31 08:57:20;;;;;;;7.93;3.97;;;;;;;11.11;100.00;101213.38;4975726;28;20221;-60
2021/12/31 08:59:48;;;;;;;7.53;4.07;;;;;;;10.97;100.00;101216.38;4973153;28;20369;-62
2021/12/31 09:02:16;;;;;;;6.73;4.03;;;;;;;11.09;100.00;101206.50;4976620;28;20321;-61
2021/12/31 09:04:43;;;;;;;9.13;4.30;;;;;;;11.04;100.00;101219.34;4974261;28;20221;-61
2021/12/31 09:07:12;;;;;;;9.20;4.00;;;;;;;11.22;100.00;101209.78;4973817;28;20255;-62
2021/12/31 09:09:40;;;;;;;5.87;3.60;;;;;;;11.27;100.00;101218.16;4975823;28;20687;-61
2021/12/31 09:12:09;;;;;;;6.43;3.90;;;;;;;11.17;100.00;101209.34;4972462;28;20308;-60
2021/12/31 09:14:37;;;;;;;8.73;3.90;;;;;;;11.40;99.74;101223.25;4971407;28;20223;-61
2021/12/31 09:17:05;;;;;;;11.03;4.77;;;;;;;11.33;100.00;101225.63;4973721;28;20702;-60
2021/12/31 09:19:32;;;;;;;10.53;4.80;;;;;;;11.33;100.00;101222.97;4973863;28;20261;-61
2021/12/31 09:22:01;;;;;;;8.37;4.03;;;;;;;11.22;100.00;101228.38;4972773;28;20253;-62
2021/12/31 09:24:31;;;;;;;8.23;4.10;;;;;;;11.31;100.00;101227.56;4969626;28;20546;-61
2021/12/31 09:26:58;;;;;;;9.53;3.93;;;;;;;11.33;100.00;101230.94;4971520;28;20638;-61
2021/12/31 09:29:26;;;;;;;7.43;4.13;;;;;;;11.47;99.78;101227.03;4973912;28;20218;-61
2021/12/31 09:31:54;;;;;;;6.33;3.57;;;;;;;11.45;100.00;101224.50;4974333;28;20214;-61
2021/12/31 09:34:22;;;;;;;7.37;3.57;;;;;;;11.45;100.00;101229.00;4972145;28;20308;-61
2021/12/31 09:36:50;;;;;;;7.40;4.20;;;;;;;11.48;99.33;101213.63;4973072;28;20608;-61
2021/12/31 09:39:18;;;;;;;6.10;3.43;;;;;;;11.44;99.86;101212.22;4973971;28;20218;-61
2021/12/31 09:41:47;;;;;;;7.73;3.77;;;;;;;11.42;99.68;101205.38;4972096;28;20549;-61
2021/12/31 09:44:15;;;;;;;8.50;3.70;;;;;;;11.37;100.00;101197.81;4969362;28;20354;-60
2021/12/31 09:46:43;;;;;;;11.07;3.77;;;;;;;11.59;99.94;101210.88;4983516;28;20579;-62
2021/12/31 09:49:11;;;;;;;7.27;4.10;;;;;;;11.65;98.68;101215.63;4970439;28;20222;-63
2021/12/31 09:51:42;;;;;;;7.67;3.80;;;;;;;11.75;98.19;101204.22;4971748;28;20709;-62
2021/12/31 09:54:10;;;;;;;8.63;3.97;;;;;;;11.85;97.67;101199.75;4972394;28;20234;-61
2021/12/31 09:56:40;;;;;;;11.83;4.57;;;;;;;11.80;97.60;101201.97;4973643;28;20215;-61
2021/12/31 09:59:10;;;;;;;7.47;4.10;;;;;;;11.89;96.89;101201.13;4974054;28;20289;-63
2021/12/31 10:01:48;;;;;;;5.90;3.70;;;;;;;11.98;96.79;101192.31;4971199;28;20212;-61
2021/12/31 10:04:16;;;;;;;5.33;3.13;;;;;;;12.08;96.12;101190.50;4971508;28;20226;-62
2021/12/31 10:07:10;;;;;;;7.60;3.67;;;;;;;12.26;95.85;101191.50;4963167;28;20211;-61
2021/12/31 10:09:40;;;;;;;7.13;2.97;;;;;;;12.94;91.29;101199.31;4971240;28;20218;-62
2021/12/31 10:12:13;;;;;;;10.00;3.37;;;;;;;15.37;79.22;101190.81;4972125;28;20559;-62
2021/12/31 10:14:43;;;;;;;5.60;2.73;;;;;;;17.52;67.49;101181.28;4974141;28;20214;-61
2021/12/31 10:17:10;;;;;;;7.37;3.00;;;;;;;18.09;64.12;101172.91;4972221;28;20213;-61
2021/12/31 10:19:56;;;;;;;6.33;2.50;;;;;;;18.71;62.04;101174.38;4971103;28;20246;-62
2021/12/31 10:22:24;;;;;;;5.37;2.43;;;;;;;17.57;65.27;101190.50;4964538;28;20237;-60
2021/12/31 10:24:52;;;;;;;3.83;2.33;;;;;;;15.99;70.99;101196.69;4972654;28;20357;-63
2021/12/31 10:27:20;;;;;;;4.17;2.33;;;;;;;14.88;76.89;101195.09;4971564;28;20724;-62
2021/12/31 10:29:53;;;;;;;5.07;2.53;;;;;;;14.55;78.56;101205.56;4973118;28;20585;-61
2021/12/31 10:32:22;;;;;;;4.57;2.43;;;;;;;14.42;79.29;101213.16;4971069;28;20293;-61
2021/12/31 10:34:50;;;;;;;6.03;2.43;;;;;;;15.33;77.38;101219.69;4972365;28;20251;-63
2021/12/31 10:37:20;;;;;;;5.90;2.70;;;;;;;17.39;67.12;101216.72;4971771;28;20309;-63
2021/12/31 10:39:56;;;;;;;6.50;4.20;;;;;;;18.20;64.02;101220.81;4974869;28;20214;-62
2021/12/31 10:42:28;;;;;;;5.57;2.90;;;;;;;19.67;58.69;101218.25;4957351;28;20302;-61
2021/12/31 10:44:58;;;;;;;5.67;2.67;;;;;;;19.81;57.31;101202.06;4968815;28;20250;-63
2021/12/31 10:47:31;;;;;;;4.30;2.38;;;;;;;19.10;59.47;101200.97;4971057;28;20276;-62
2021/12/31 10:50:13;;;;;;;6.35;2.33;;;;;;;18.26;63.12;101206.66;4970929;28;20213;-61
2021/12/31 10:52:54;;;;;;;4.00;2.58;;;;;;;18.35;62.27;101213.63;4966733;28;20214;-61
2021/12/31 10:55:26;;;;;;;5.35;2.60;;;;;;;19.20;60.78;101213.28;4972392;28;20220;-62
2021/12/31 10:57:57;;;;;;;5.05;2.70;;;;;;;18.81;60.92;101217.09;4970587;28;20233;-63
2021/12/31 11:00:28;;;;;;;5.03;2.33;;;;;;;17.58;64.84;101226.19;4970501;28;20206;-63
2021/12/31 11:02:57;;;;;;;3.05;1.88;;;;;;;16.63;68.38;101238.69;4965231;28;20219;-62
2021/12/31 11:05:27;;;;;;;4.35;2.65;;;;;;;16.12;70.91;101229.94;4958895;28;20242;-62
2021/12/31 11:08:00;;;;;;;2.92;1.95;;;;;;;16.03;71.45;101217.56;4970939;28;20261;-63
2021/12/31 11:10:35;;;;;;;6.28;2.92;;;;;;;15.86;73.29;101229.25;4972681;28;20210;-62
2021/12/31 11:13:04;;;;;;;5.97;2.97;;;;;;;15.87;73.39;101241.63;4974943;28;20214;-61
2021/12/31 11:15:33;;;;;;;5.95;2.30;;;;;;;16.08;72.89;101233.97;4969855;28;20301;-61
2021/12/31 11:18:01;;;;;;;5.05;2.70;;;;;;;16.21;72.53;101227.28;4970236;28;20299;-63
2021/12/31 11:20:29;;;;;;;7.47;2.83;;;;;;;16.27;71.14;101226.63;4970127;28;20245;-63
2021/12/31 11:22:57;;;;;;;7.80;3.20;;;;;;;15.91;73.42;101212.72;4969908;28;20215;-62
2021/12/31 11:25:51;;;;;;;7.50;3.27;;;;;;;15.44;75.61;101213.22;4968778;28;20237;-62
2021/12/31 11:28:25;;;;;;;5.07;3.20;;;;;;;15.37;76.41;101221.06;4969497;28;20693;-62